sensor_id;sensor_type;location;lat;lon;timestamp;P1;durP1;ratioP1;P2;durP2;ratioP2
9322;SDS011;4700;48.822;9.270;2023-06-14T00:01:43;39.07;;;37.40;;
9322;SDS011;4700;48.822;9.270;2023-06-14T00:04:29;39.43;;;37.63;;
9322;SDS011;4700;48.822;9.270;2023-06-14T00:07:15;39.83;;;38.10;;
9322;SDS011;4700;48.822;9.270;2023-06-14T00:10:01;33.77;;;31.83;;
9322;SDS011;4700;48.822;9.270;2023-06-14T00:12:48;29.93;;;28.67;;
9322;SDS011;4700;48.822;9.270;2023-06-14T00:15:34;40.93;;;39.03;;
9322;SDS011;4700;48.822;9.270;2023-06-14T00:18:21;36.60;;;35.07;;
9322;SDS011;4700;48.822;9.270;2023-06-14T00:21:08;30.43;;;28.87;;
9322;SDS011;4700;48.822;9.270;2023-06-14T00:23:54;34.80;;;33.30;;
9322;SDS011;4700;48.822;9.270;2023-06-14T00:26:40;38.63;;;36.87;;
9322;SDS011;4700;48.822;9.270;2023-06-14T00:29:26;36.23;;;34.50;;
9322;SDS011;4700;48.822;9.270;2023-06-14T00:32:11;35.43;;;33.87;;
9322;SDS011;4700;48.822;9.270;2023-06-14T00:34:59;33.03;;;31.67;;
9322;SDS011;4700;48.822;9.270;2023-06-14T00:37:44;34.53;;;33.00;;
9322;SDS011;4700;48.822;9.270;2023-06-14T00:40:30;26.70;;;25.47;;
9322;SDS011;4700;48.822;9.270;2023-06-14T00:43:16;33.70;;;32.23;;
9322;SDS011;4700;48.822;9.270;2023-06-14T00:46:01;35.17;;;33.57;;
9322;SDS011;4700;48.822;9.270;2023-06-14T00:48:47;33.70;;;31.97;;
9322;SDS011;4700;48.822;9.270;2023-06-14T00:51:35;44.03;;;41.93;;
9322;SDS011;4700;48.822;9.270;2023-06-14T00:54:21;40.93;;;39.23;;
9322;SDS011;4700;48.822;9.270;2023-06-14T00:57:07;41.23;;;39.33;;
9322;SDS011;4700;48.822;9.270;2023-06-14T00:59:54;44.67;;;42.60;;
9322;SDS011;4700;48.822;9.270;2023-06-14T01:02:40;66.10;;;63.27;;
9322;SDS011;4700;48.822;9.270;2023-06-14T01:05:26;80.83;;;77.57;;
9322;SDS011;4700;48.822;9.270;2023-06-14T01:10:56;40.63;;;38.70;;
9322;SDS011;4700;48.822;9.270;2023-06-14T01:13:50;42.23;;;40.30;;
9322;SDS011;4700;48.822;9.270;2023-06-14T01:16:38;51.67;;;49.40;;
9322;SDS011;4700;48.822;9.270;2023-06-14T01:19:25;62.07;;;59.67;;
9322;SDS011;4700;48.822;9.270;2023-06-14T01:22:12;65.33;;;62.60;;
9322;SDS011;4700;48.822;9.270;2023-06-14T01:24:59;45.30;;;43.40;;
9322;SDS011;4700;48.822;9.270;2023-06-14T01:27:45;54.87;;;52.70;;
9322;SDS011;4700;48.822;9.270;2023-06-14T01:30:32;57.90;;;55.50;;
9322;SDS011;4700;48.822;9.270;2023-06-14T01:33:19;56.33;;;53.73;;
9322;SDS011;4700;48.822;9.270;2023-06-14T01:36:06;69.07;;;66.47;;
9322;SDS011;4700;48.822;9.270;2023-06-14T01:38:53;87.90;;;84.23;;
9322;SDS011;4700;48.822;9.270;2023-06-14T01:41:41;92.93;;;89.10;;
9322;SDS011;4700;48.822;9.270;2023-06-14T01:44:29;64.03;;;61.27;;
9322;SDS011;4700;48.822;9.270;2023-06-14T01:47:16;53.20;;;51.00;;
9322;SDS011;4700;48.822;9.270;2023-06-14T01:50:02;45.80;;;43.97;;
9322;SDS011;4700;48.822;9.270;2023-06-14T01:52:48;72.50;;;69.57;;
9322;SDS011;4700;48.822;9.270;2023-06-14T01:55:34;77.97;;;74.93;;
9322;SDS011;4700;48.822;9.270;2023-06-14T01:58:22;71.23;;;68.37;;
9322;SDS011;4700;48.822;9.270;2023-06-14T02:01:10;58.47;;;55.83;;
9322;SDS011;4700;48.822;9.270;2023-06-14T02:03:56;59.97;;;57.27;;
9322;SDS011;4700;48.822;9.270;2023-06-14T02:06:42;84.80;;;81.47;;
9322;SDS011;4700;48.822;9.270;2023-06-14T02:09:28;95.17;;;91.40;;
9322;SDS011;4700;48.822;9.270;2023-06-14T02:12:14;75.87;;;72.87;;
9322;SDS011;4700;48.822;9.270;2023-06-14T02:15:01;69.90;;;66.97;;
9322;SDS011;4700;48.822;9.270;2023-06-14T02:17:47;74.53;;;71.47;;
9322;SDS011;4700;48.822;9.270;2023-06-14T02:20:34;67.37;;;64.70;;
9322;SDS011;4700;48.822;9.270;2023-06-14T02:23:20;78.27;;;75.00;;
9322;SDS011;4700;48.822;9.270;2023-06-14T02:26:06;69.90;;;67.13;;
9322;SDS011;4700;48.822;9.270;2023-06-14T02:28:52;62.07;;;59.23;;
9322;SDS011;4700;48.822;9.270;2023-06-14T02:31:40;61.27;;;58.63;;
9322;SDS011;4700;48.822;9.270;2023-06-14T02:34:26;81.40;;;77.97;;
9322;SDS011;4700;48.822;9.270;2023-06-14T02:37:12;61.60;;;58.97;;
9322;SDS011;4700;48.822;9.270;2023-06-14T02:39:58;91.13;;;87.37;;
9322;SDS011;4700;48.822;9.270;2023-06-14T02:42:44;113.97;;;109.50;;
9322;SDS011;4700;48.822;9.270;2023-06-14T02:45:30;108.27;;;103.80;;
9322;SDS011;4700;48.822;9.270;2023-06-14T02:48:17;107.87;;;103.43;;
9322;SDS011;4700;48.822;9.270;2023-06-14T02:51:03;86.57;;;83.10;;
9322;SDS011;4700;48.822;9.270;2023-06-14T02:53:50;88.07;;;84.57;;
9322;SDS011;4700;48.822;9.270;2023-06-14T02:56:35;89.27;;;85.77;;
9322;SDS011;4700;48.822;9.270;2023-06-14T02:59:21;95.70;;;91.90;;
9322;SDS011;4700;48.822;9.270;2023-06-14T03:02:09;113.87;;;109.53;;
9322;SDS011;4700;48.822;9.270;2023-06-14T03:04:56;119.30;;;114.63;;
9322;SDS011;4700;48.822;9.270;2023-06-14T03:07:45;128.30;;;123.37;;
9322;SDS011;4700;48.822;9.270;2023-06-14T03:10:31;121.53;;;116.63;;
9322;SDS011;4700;48.822;9.270;2023-06-14T03:13:17;116.37;;;111.23;;
9322;SDS011;4700;48.822;9.270;2023-06-14T03:16:05;104.03;;;99.73;;
9322;SDS011;4700;48.822;9.270;2023-06-14T03:18:51;144.10;;;138.53;;
9322;SDS011;4700;48.822;9.270;2023-06-14T03:21:38;140.80;;;134.93;;
9322;SDS011;4700;48.822;9.270;2023-06-14T03:24:27;190.73;;;183.20;;
9322;SDS011;4700;48.822;9.270;2023-06-14T03:27:13;130.70;;;125.67;;
9322;SDS011;4700;48.822;9.270;2023-06-14T03:29:59;163.03;;;156.67;;
9322;SDS011;4700;48.822;9.270;2023-06-14T03:32:45;151.43;;;145.30;;
9322;SDS011;4700;48.822;9.270;2023-06-14T03:35:31;194.77;;;187.07;;
9322;SDS011;4700;48.822;9.270;2023-06-14T03:38:18;173.73;;;166.77;;
9322;SDS011;4700;48.822;9.270;2023-06-14T03:41:04;158.27;;;152.03;;
9322;SDS011;4700;48.822;9.270;2023-06-14T03:43:50;187.73;;;180.33;;
9322;SDS011;4700;48.822;9.270;2023-06-14T03:46:36;161.80;;;155.40;;
9322;SDS011;4700;48.822;9.270;2023-06-14T03:49:21;194.20;;;186.47;;
9322;SDS011;4700;48.822;9.270;2023-06-14T03:52:07;158.87;;;152.57;;
9322;SDS011;4700;48.822;9.270;2023-06-14T03:54:54;169.20;;;162.53;;
9322;SDS011;4700;48.822;9.270;2023-06-14T03:57:40;160.03;;;153.87;;
9322;SDS011;4700;48.822;9.270;2023-06-14T04:00:26;149.10;;;143.13;;
9322;SDS011;4700;48.822;9.270;2023-06-14T04:03:12;181.87;;;174.60;;
9322;SDS011;4700;48.822;9.270;2023-06-14T04:05:59;269.63;;;258.47;;
9322;SDS011;4700;48.822;9.270;2023-06-14T04:08:44;257.67;;;247.40;;
9322;SDS011;4700;48.822;9.270;2023-06-14T04:11:14;165.87;;;159.23;;
9322;SDS011;4700;48.822;9.270;2023-06-14T04:14:01;195.50;;;187.57;;
9322;SDS011;4700;48.822;9.270;2023-06-14T04:16:47;153.60;;;147.40;;
9322;SDS011;4700;48.822;9.270;2023-06-14T04:19:33;182.13;;;174.47;;
9322;SDS011;4700;48.822;9.270;2023-06-14T04:22:19;229.80;;;220.50;;
9322;SDS011;4700;48.822;9.270;2023-06-14T04:25:05;236.67;;;226.93;;
9322;SDS011;4700;48.822;9.270;2023-06-14T04:27:53;189.63;;;181.83;;
9322;SDS011;4700;48.822;9.270;2023-06-14T04:30:39;230.97;;;221.57;;
9322;SDS011;4700;48.822;9.270;2023-06-14T04:33:24;226.40;;;215.17;;
9322;SDS011;4700;48.822;9.270;2023-06-14T04:36:10;210.97;;;202.03;;
9322;SDS011;4700;48.822;9.270;2023-06-14T04:38:57;200.20;;;191.40;;
9322;SDS011;4700;48.822;9.270;2023-06-14T04:41:42;208.63;;;199.17;;
9322;SDS011;4700;48.822;9.270;2023-06-14T04:44:30;160.63;;;153.30;;
9322;SDS011;4700;48.822;9.270;2023-06-14T04:47:15;154.67;;;146.27;;
9322;SDS011;4700;48.822;9.270;2023-06-14T04:50:01;100.80;;;95.87;;
9322;SDS011;4700;48.822;9.270;2023-06-14T04:52:47;130.37;;;123.37;;
9322;SDS011;4700;48.822;9.270;2023-06-14T04:55:35;137.03;;;130.43;;
9322;SDS011;4700;48.822;9.270;2023-06-14T04:58:20;126.07;;;120.23;;
9322;SDS011;4700;48.822;9.270;2023-06-14T05:01:09;112.90;;;105.80;;
9322;SDS011;4700;48.822;9.270;2023-06-14T05:03:56;117.57;;;111.93;;
9322;SDS011;4700;48.822;9.270;2023-06-14T05:06:42;88.53;;;83.47;;
9322;SDS011;4700;48.822;9.270;2023-06-14T05:09:29;65.97;;;62.13;;
9322;SDS011;4700;48.822;9.270;2023-06-14T05:12:14;82.27;;;77.27;;
9322;SDS011;4700;48.822;9.270;2023-06-14T05:15:02;105.47;;;99.27;;
9322;SDS011;4700;48.822;9.270;2023-06-14T05:17:50;119.67;;;112.10;;
9322;SDS011;4700;48.822;9.270;2023-06-14T05:20:39;83.37;;;78.03;;
9322;SDS011;4700;48.822;9.270;2023-06-14T05:23:25;61.93;;;57.77;;
9322;SDS011;4700;48.822;9.270;2023-06-14T05:26:11;71.13;;;67.17;;
9322;SDS011;4700;48.822;9.270;2023-06-14T05:28:56;66.20;;;61.67;;
9322;SDS011;4700;48.822;9.270;2023-06-14T05:31:44;52.00;;;48.33;;
9322;SDS011;4700;48.822;9.270;2023-06-14T05:34:31;36.17;;;33.53;;
9322;SDS011;4700;48.822;9.270;2023-06-14T05:37:17;50.87;;;46.40;;
9322;SDS011;4700;48.822;9.270;2023-06-14T05:40:04;34.67;;;31.90;;
9322;SDS011;4700;48.822;9.270;2023-06-14T05:42:50;50.60;;;46.20;;
9322;SDS011;4700;48.822;9.270;2023-06-14T05:45:36;48.60;;;43.43;;
9322;SDS011;4700;48.822;9.270;2023-06-14T05:48:22;95.23;;;39.53;;
9322;SDS011;4700;48.822;9.270;2023-06-14T05:51:09;49.50;;;44.33;;
9322;SDS011;4700;48.822;9.270;2023-06-14T05:53:57;50.50;;;46.43;;
9322;SDS011;4700;48.822;9.270;2023-06-14T05:56:44;57.83;;;42.00;;
9322;SDS011;4700;48.822;9.270;2023-06-14T05:59:32;38.77;;;35.37;;
9322;SDS011;4700;48.822;9.270;2023-06-14T06:02:18;28.70;;;25.07;;
9322;SDS011;4700;48.822;9.270;2023-06-14T06:05:08;40.50;;;31.37;;
9322;SDS011;4700;48.822;9.270;2023-06-14T06:07:55;59.43;;;52.97;;
9322;SDS011;4700;48.822;9.270;2023-06-14T06:10:41;40.53;;;26.70;;
9322;SDS011;4700;48.822;9.270;2023-06-14T06:13:27;43.93;;;39.37;;
9322;SDS011;4700;48.822;9.270;2023-06-14T06:16:13;35.97;;;32.87;;
9322;SDS011;4700;48.822;9.270;2023-06-14T06:18:59;33.03;;;28.37;;
9322;SDS011;4700;48.822;9.270;2023-06-14T06:21:45;50.23;;;45.73;;
9322;SDS011;4700;48.822;9.270;2023-06-14T06:24:32;39.40;;;36.10;;
9322;SDS011;4700;48.822;9.270;2023-06-14T06:27:20;119.70;;;49.03;;
9322;SDS011;4700;48.822;9.270;2023-06-14T06:30:18;45.33;;;35.60;;
9322;SDS011;4700;48.822;9.270;2023-06-14T06:33:04;696.87;;;132.73;;
9322;SDS011;4700;48.822;9.270;2023-06-14T06:35:49;42.03;;;38.17;;
9322;SDS011;4700;48.822;9.270;2023-06-14T06:38:35;38.50;;;35.43;;
9322;SDS011;4700;48.822;9.270;2023-06-14T06:41:22;38.80;;;32.27;;
9322;SDS011;4700;48.822;9.270;2023-06-14T06:44:08;53.57;;;47.40;;
9322;SDS011;4700;48.822;9.270;2023-06-14T06:46:54;28.13;;;19.27;;
9322;SDS011;4700;48.822;9.270;2023-06-14T06:49:41;54.80;;;30.50;;
9322;SDS011;4700;48.822;9.270;2023-06-14T06:52:27;38.73;;;22.20;;
9322;SDS011;4700;48.822;9.270;2023-06-14T06:55:14;31.60;;;15.50;;
9322;SDS011;4700;48.822;9.270;2023-06-14T06:58:01;35.73;;;18.13;;
9322;SDS011;4700;48.822;9.270;2023-06-14T07:00:48;34.57;;;17.00;;
9322;SDS011;4700;48.822;9.270;2023-06-14T07:03:35;35.23;;;14.67;;
9322;SDS011;4700;48.822;9.270;2023-06-14T07:06:21;26.77;;;14.70;;
9322;SDS011;4700;48.822;9.270;2023-06-14T07:09:10;34.33;;;14.87;;
9322;SDS011;4700;48.822;9.270;2023-06-14T07:11:58;32.53;;;17.57;;
9322;SDS011;4700;48.822;9.270;2023-06-14T07:14:47;47.00;;;17.13;;
9322;SDS011;4700;48.822;9.270;2023-06-14T07:17:32;59.97;;;16.60;;
9322;SDS011;4700;48.822;9.270;2023-06-14T07:20:18;32.70;;;17.30;;
9322;SDS011;4700;48.822;9.270;2023-06-14T07:23:05;14.40;;;9.83;;
9322;SDS011;4700;48.822;9.270;2023-06-14T07:25:53;14.37;;;10.17;;
9322;SDS011;4700;48.822;9.270;2023-06-14T07:28:42;16.53;;;9.00;;
9322;SDS011;4700;48.822;9.270;2023-06-14T07:31:47;43.03;;;15.00;;
9322;SDS011;4700;48.822;9.270;2023-06-14T07:34:33;25.93;;;13.70;;
9322;SDS011;4700;48.822;9.270;2023-06-14T07:37:19;20.63;;;12.33;;
9322;SDS011;4700;48.822;9.270;2023-06-14T07:40:05;32.23;;;18.50;;
9322;SDS011;4700;48.822;9.270;2023-06-14T07:42:57;24.10;;;14.23;;
9322;SDS011;4700;48.822;9.270;2023-06-14T07:45:43;34.13;;;19.70;;
9322;SDS011;4700;48.822;9.270;2023-06-14T07:48:31;29.97;;;15.50;;
9322;SDS011;4700;48.822;9.270;2023-06-14T07:51:17;23.20;;;14.60;;
9322;SDS011;4700;48.822;9.270;2023-06-14T07:54:03;36.87;;;17.30;;
9322;SDS011;4700;48.822;9.270;2023-06-14T07:56:51;38.80;;;21.70;;
9322;SDS011;4700;48.822;9.270;2023-06-14T07:59:37;37.23;;;20.50;;
9322;SDS011;4700;48.822;9.270;2023-06-14T08:02:23;49.57;;;27.33;;
9322;SDS011;4700;48.822;9.270;2023-06-14T08:05:10;24.90;;;15.83;;
9322;SDS011;4700;48.822;9.270;2023-06-14T08:07:56;34.60;;;26.30;;
9322;SDS011;4700;48.822;9.270;2023-06-14T08:10:42;46.67;;;32.50;;
9322;SDS011;4700;48.822;9.270;2023-06-14T08:13:28;36.17;;;32.47;;
9322;SDS011;4700;48.822;9.270;2023-06-14T08:16:15;50.80;;;44.00;;
9322;SDS011;4700;48.822;9.270;2023-06-14T08:19:03;48.77;;;43.87;;
9322;SDS011;4700;48.822;9.270;2023-06-14T08:21:50;49.60;;;45.90;;
9322;SDS011;4700;48.822;9.270;2023-06-14T08:24:39;77.33;;;72.43;;
9322;SDS011;4700;48.822;9.270;2023-06-14T08:27:26;110.50;;;103.27;;
9322;SDS011;4700;48.822;9.270;2023-06-14T08:30:13;110.13;;;103.07;;
9322;SDS011;4700;48.822;9.270;2023-06-14T08:33:00;110.73;;;104.57;;
9322;SDS011;4700;48.822;9.270;2023-06-14T08:35:46;112.50;;;106.70;;
9322;SDS011;4700;48.822;9.270;2023-06-14T08:38:34;119.27;;;109.57;;
9322;SDS011;4700;48.822;9.270;2023-06-14T08:41:21;111.53;;;103.47;;
9322;SDS011;4700;48.822;9.270;2023-06-14T08:44:08;108.40;;;102.47;;
9322;SDS011;4700;48.822;9.270;2023-06-14T08:46:54;113.17;;;105.67;;
9322;SDS011;4700;48.822;9.270;2023-06-14T08:49:42;107.03;;;98.80;;
9322;SDS011;4700;48.822;9.270;2023-06-14T08:52:32;116.17;;;109.57;;
9322;SDS011;4700;48.822;9.270;2023-06-14T08:55:25;108.67;;;101.70;;
9322;SDS011;4700;48.822;9.270;2023-06-14T08:58:12;68.73;;;63.80;;
9322;SDS011;4700;48.822;9.270;2023-06-14T09:00:59;57.10;;;51.73;;
9322;SDS011;4700;48.822;9.270;2023-06-14T09:03:46;73.80;;;61.83;;
9322;SDS011;4700;48.822;9.270;2023-06-14T09:06:32;48.70;;;43.80;;
9322;SDS011;4700;48.822;9.270;2023-06-14T09:09:18;34.80;;;30.07;;
9322;SDS011;4700;48.822;9.270;2023-06-14T09:12:08;53.73;;;35.73;;
9322;SDS011;4700;48.822;9.270;2023-06-14T09:14:56;43.57;;;37.50;;
9322;SDS011;4700;48.822;9.270;2023-06-14T09:17:42;64.67;;;58.30;;
9322;SDS011;4700;48.822;9.270;2023-06-14T09:20:29;53.37;;;47.10;;
9322;SDS011;4700;48.822;9.270;2023-06-14T09:23:19;70.13;;;62.17;;
9322;SDS011;4700;48.822;9.270;2023-06-14T09:26:06;54.97;;;49.87;;
9322;SDS011;4700;48.822;9.270;2023-06-14T09:28:55;110.33;;;52.30;;
9322;SDS011;4700;48.822;9.270;2023-06-14T09:31:41;73.63;;;57.87;;
9322;SDS011;4700;48.822;9.270;2023-06-14T09:34:27;48.73;;;44.10;;
9322;SDS011;4700;48.822;9.270;2023-06-14T09:37:15;63.50;;;57.50;;
9322;SDS011;4700;48.822;9.270;2023-06-14T09:40:12;69.03;;;63.23;;
9322;SDS011;4700;48.822;9.270;2023-06-14T09:42:58;60.67;;;55.60;;
9322;SDS011;4700;48.822;9.270;2023-06-14T09:45:45;67.20;;;58.57;;
9322;SDS011;4700;48.822;9.270;2023-06-14T09:48:33;41.93;;;31.77;;
9322;SDS011;4700;48.822;9.270;2023-06-14T09:51:20;78.07;;;67.83;;
9322;SDS011;4700;48.822;9.270;2023-06-14T09:54:08;87.93;;;80.70;;
9322;SDS011;4700;48.822;9.270;2023-06-14T09:56:59;65.03;;;58.07;;
9322;SDS011;4700;48.822;9.270;2023-06-14T09:59:48;75.00;;;62.63;;
9322;SDS011;4700;48.822;9.270;2023-06-14T10:02:38;60.73;;;53.83;;
9322;SDS011;4700;48.822;9.270;2023-06-14T10:05:27;67.17;;;52.27;;
9322;SDS011;4700;48.822;9.270;2023-06-14T10:08:14;48.57;;;41.83;;
9322;SDS011;4700;48.822;9.270;2023-06-14T10:11:02;64.47;;;58.87;;
9322;SDS011;4700;48.822;9.270;2023-06-14T10:13:48;62.27;;;55.47;;
9322;SDS011;4700;48.822;9.270;2023-06-14T10:16:36;60.73;;;55.83;;
9322;SDS011;4700;48.822;9.270;2023-06-14T10:19:31;80.47;;;73.43;;
9322;SDS011;4700;48.822;9.270;2023-06-14T10:22:30;72.07;;;67.57;;
9322;SDS011;4700;48.822;9.270;2023-06-14T10:25:27;77.20;;;71.27;;
9322;SDS011;4700;48.822;9.270;2023-06-14T10:28:14;72.40;;;68.00;;
9322;SDS011;4700;48.822;9.270;2023-06-14T10:31:02;72.37;;;68.27;;
9322;SDS011;4700;48.822;9.270;2023-06-14T10:33:55;101.93;;;94.30;;
9322;SDS011;4700;48.822;9.270;2023-06-14T10:36:42;86.67;;;81.27;;
9322;SDS011;4700;48.822;9.270;2023-06-14T10:39:32;72.80;;;66.00;;
9322;SDS011;4700;48.822;9.270;2023-06-14T10:42:27;48.60;;;44.80;;
9322;SDS011;4700;48.822;9.270;2023-06-14T10:45:13;81.60;;;72.30;;
9322;SDS011;4700;48.822;9.270;2023-06-14T10:47:59;72.10;;;59.70;;
9322;SDS011;4700;48.822;9.270;2023-06-14T10:50:46;51.20;;;46.10;;
9322;SDS011;4700;48.822;9.270;2023-06-14T10:53:39;45.20;;;35.83;;
9322;SDS011;4700;48.822;9.270;2023-06-14T10:56:30;51.63;;;43.57;;
9322;SDS011;4700;48.822;9.270;2023-06-14T10:59:18;59.90;;;49.27;;
9322;SDS011;4700;48.822;9.270;2023-06-14T11:02:10;75.43;;;52.80;;
9322;SDS011;4700;48.822;9.270;2023-06-14T11:05:16;58.27;;;48.47;;
9322;SDS011;4700;48.822;9.270;2023-06-14T11:08:18;60.87;;;54.93;;
9322;SDS011;4700;48.822;9.270;2023-06-14T11:11:16;63.90;;;45.70;;
9322;SDS011;4700;48.822;9.270;2023-06-14T11:14:04;60.57;;;54.73;;
9322;SDS011;4700;48.822;9.270;2023-06-14T11:16:51;54.97;;;49.27;;
9322;SDS011;4700;48.822;9.270;2023-06-14T11:19:37;47.33;;;41.87;;
9322;SDS011;4700;48.822;9.270;2023-06-14T11:22:23;55.87;;;43.43;;
9322;SDS011;4700;48.822;9.270;2023-06-14T11:25:11;46.07;;;41.23;;
9322;SDS011;4700;48.822;9.270;2023-06-14T11:27:57;55.63;;;42.17;;
9322;SDS011;4700;48.822;9.270;2023-06-14T11:30:45;54.40;;;30.67;;
9322;SDS011;4700;48.822;9.270;2023-06-14T11:33:31;48.10;;;25.90;;
9322;SDS011;4700;48.822;9.270;2023-06-14T11:36:19;61.10;;;44.10;;
9322;SDS011;4700;48.822;9.270;2023-06-14T11:39:05;51.33;;;46.23;;
9322;SDS011;4700;48.822;9.270;2023-06-14T11:41:52;31.63;;;28.47;;
9322;SDS011;4700;48.822;9.270;2023-06-14T11:44:39;33.10;;;29.93;;
9322;SDS011;4700;48.822;9.270;2023-06-14T11:47:30;39.03;;;34.77;;
9322;SDS011;4700;48.822;9.270;2023-06-14T11:50:19;45.33;;;25.70;;
9322;SDS011;4700;48.822;9.270;2023-06-14T11:53:06;65.33;;;46.60;;
9322;SDS011;4700;48.822;9.270;2023-06-14T11:55:53;52.10;;;46.03;;
9322;SDS011;4700;48.822;9.270;2023-06-14T11:58:40;46.03;;;36.87;;
9322;SDS011;4700;48.822;9.270;2023-06-14T12:01:29;45.13;;;34.60;;
9322;SDS011;4700;48.822;9.270;2023-06-14T12:04:24;33.77;;;29.53;;
9322;SDS011;4700;48.822;9.270;2023-06-14T12:07:12;51.53;;;45.60;;
9322;SDS011;4700;48.822;9.270;2023-06-14T12:10:06;53.33;;;48.10;;
9322;SDS011;4700;48.822;9.270;2023-06-14T12:12:56;45.20;;;40.93;;
9322;SDS011;4700;48.822;9.270;2023-06-14T12:15:43;36.70;;;29.37;;
9322;SDS011;4700;48.822;9.270;2023-06-14T12:18:33;47.40;;;43.47;;
9322;SDS011;4700;48.822;9.270;2023-06-14T12:21:22;52.13;;;36.57;;
9322;SDS011;4700;48.822;9.270;2023-06-14T12:24:09;50.40;;;45.07;;
9322;SDS011;4700;48.822;9.270;2023-06-14T12:26:57;59.07;;;40.93;;
9322;SDS011;4700;48.822;9.270;2023-06-14T12:29:47;161.20;;;59.93;;
9322;SDS011;4700;48.822;9.270;2023-06-14T12:32:44;38.90;;;33.10;;
9322;SDS011;4700;48.822;9.270;2023-06-14T12:35:30;42.13;;;37.53;;
9322;SDS011;4700;48.822;9.270;2023-06-14T12:38:19;39.50;;;31.03;;
9322;SDS011;4700;48.822;9.270;2023-06-14T12:41:09;59.50;;;44.03;;
9322;SDS011;4700;48.822;9.270;2023-06-14T12:43:55;58.00;;;35.97;;
9322;SDS011;4700;48.822;9.270;2023-06-14T12:46:43;132.70;;;56.77;;
9322;SDS011;4700;48.822;9.270;2023-06-14T12:49:29;43.90;;;37.20;;
9322;SDS011;4700;48.822;9.270;2023-06-14T12:52:15;58.97;;;35.10;;
9322;SDS011;4700;48.822;9.270;2023-06-14T12:55:04;60.50;;;29.07;;
9322;SDS011;4700;48.822;9.270;2023-06-14T12:57:50;48.53;;;29.40;;
9322;SDS011;4700;48.822;9.270;2023-06-14T13:00:36;45.80;;;25.60;;
9322;SDS011;4700;48.822;9.270;2023-06-14T13:03:22;44.40;;;29.33;;
9322;SDS011;4700;48.822;9.270;2023-06-14T13:06:08;43.57;;;32.40;;
9322;SDS011;4700;48.822;9.270;2023-06-14T13:08:54;47.47;;;38.50;;
9322;SDS011;4700;48.822;9.270;2023-06-14T13:11:42;29.87;;;23.13;;
9322;SDS011;4700;48.822;9.270;2023-06-14T13:14:30;55.27;;;42.63;;
9322;SDS011;4700;48.822;9.270;2023-06-14T13:17:16;45.43;;;36.80;;
9322;SDS011;4700;48.822;9.270;2023-06-14T13:20:02;50.53;;;45.43;;
9322;SDS011;4700;48.822;9.270;2023-06-14T13:22:48;53.93;;;34.27;;
9322;SDS011;4700;48.822;9.270;2023-06-14T13:25:34;46.63;;;41.63;;
9322;SDS011;4700;48.822;9.270;2023-06-14T13:28:25;45.80;;;29.50;;
9322;SDS011;4700;48.822;9.270;2023-06-14T13:31:10;36.17;;;24.30;;
9322;SDS011;4700;48.822;9.270;2023-06-14T13:33:56;40.57;;;32.53;;
9322;SDS011;4700;48.822;9.270;2023-06-14T13:36:43;62.43;;;38.50;;
9322;SDS011;4700;48.822;9.270;2023-06-14T13:39:28;35.67;;;22.03;;
9322;SDS011;4700;48.822;9.270;2023-06-14T13:42:14;49.60;;;32.27;;
9322;SDS011;4700;48.822;9.270;2023-06-14T13:45:01;47.50;;;40.20;;
9322;SDS011;4700;48.822;9.270;2023-06-14T13:47:47;44.57;;;40.30;;
9322;SDS011;4700;48.822;9.270;2023-06-14T13:50:33;44.23;;;34.43;;
9322;SDS011;4700;48.822;9.270;2023-06-14T13:53:19;36.83;;;30.47;;
9322;SDS011;4700;48.822;9.270;2023-06-14T13:56:05;39.53;;;36.33;;
9322;SDS011;4700;48.822;9.270;2023-06-14T13:58:50;31.57;;;27.97;;
9322;SDS011;4700;48.822;9.270;2023-06-14T14:01:39;44.97;;;29.23;;
9322;SDS011;4700;48.822;9.270;2023-06-14T14:04:25;61.73;;;55.43;;
9322;SDS011;4700;48.822;9.270;2023-06-14T14:07:11;36.80;;;28.43;;
9322;SDS011;4700;48.822;9.270;2023-06-14T14:09:57;48.83;;;33.37;;
9322;SDS011;4700;48.822;9.270;2023-06-14T14:12:43;44.37;;;40.47;;
9322;SDS011;4700;48.822;9.270;2023-06-14T14:15:29;42.60;;;38.37;;
9322;SDS011;4700;48.822;9.270;2023-06-14T14:18:19;33.50;;;26.90;;
9322;SDS011;4700;48.822;9.270;2023-06-14T14:21:05;35.03;;;31.50;;
9322;SDS011;4700;48.822;9.270;2023-06-14T14:23:51;27.53;;;22.20;;
9322;SDS011;4700;48.822;9.270;2023-06-14T14:26:38;38.13;;;30.83;;
9322;SDS011;4700;48.822;9.270;2023-06-14T14:29:24;34.13;;;27.77;;
9322;SDS011;4700;48.822;9.270;2023-06-14T14:32:13;38.30;;;27.57;;
9322;SDS011;4700;48.822;9.270;2023-06-14T14:35:00;21.80;;;18.20;;
9322;SDS011;4700;48.822;9.270;2023-06-14T14:37:45;40.30;;;28.40;;
9322;SDS011;4700;48.822;9.270;2023-06-14T14:40:31;22.67;;;20.37;;
9322;SDS011;4700;48.822;9.270;2023-06-14T14:43:17;32.67;;;23.67;;
9322;SDS011;4700;48.822;9.270;2023-06-14T14:46:03;33.33;;;20.13;;
9322;SDS011;4700;48.822;9.270;2023-06-14T14:48:50;20.90;;;15.87;;
9322;SDS011;4700;48.822;9.270;2023-06-14T14:51:36;20.43;;;17.77;;
9322;SDS011;4700;48.822;9.270;2023-06-14T14:54:23;20.57;;;18.07;;
9322;SDS011;4700;48.822;9.270;2023-06-14T14:57:13;16.13;;;14.53;;
9322;SDS011;4700;48.822;9.270;2023-06-14T14:59:59;27.03;;;23.07;;
9322;SDS011;4700;48.822;9.270;2023-06-14T15:02:45;28.70;;;21.60;;
9322;SDS011;4700;48.822;9.270;2023-06-14T15:05:31;32.40;;;28.90;;
9322;SDS011;4700;48.822;9.270;2023-06-14T15:08:18;31.97;;;25.87;;
9322;SDS011;4700;48.822;9.270;2023-06-14T15:11:03;35.33;;;31.60;;
9322;SDS011;4700;48.822;9.270;2023-06-14T15:13:50;47.50;;;31.57;;
9322;SDS011;4700;48.822;9.270;2023-06-14T15:16:36;31.67;;;29.20;;
9322;SDS011;4700;48.822;9.270;2023-06-14T15:19:23;28.30;;;25.50;;
9322;SDS011;4700;48.822;9.270;2023-06-14T15:22:13;35.10;;;31.87;;
9322;SDS011;4700;48.822;9.270;2023-06-14T15:25:01;29.77;;;23.23;;
9322;SDS011;4700;48.822;9.270;2023-06-14T15:27:46;25.53;;;22.70;;
9322;SDS011;4700;48.822;9.270;2023-06-14T15:30:32;28.83;;;20.60;;
9322;SDS011;4700;48.822;9.270;2023-06-14T15:33:18;21.73;;;18.20;;
9322;SDS011;4700;48.822;9.270;2023-06-14T15:36:05;18.30;;;13.43;;
9322;SDS011;4700;48.822;9.270;2023-06-14T15:38:53;31.53;;;19.00;;
9322;SDS011;4700;48.822;9.270;2023-06-14T15:41:41;25.93;;;15.73;;
9322;SDS011;4700;48.822;9.270;2023-06-14T15:44:29;25.63;;;17.20;;
9322;SDS011;4700;48.822;9.270;2023-06-14T15:47:15;40.40;;;20.60;;
9322;SDS011;4700;48.822;9.270;2023-06-14T15:50:01;23.03;;;14.90;;
9322;SDS011;4700;48.822;9.270;2023-06-14T15:52:48;19.60;;;13.33;;
9322;SDS011;4700;48.822;9.270;2023-06-14T15:55:34;44.87;;;20.43;;
9322;SDS011;4700;48.822;9.270;2023-06-14T15:58:21;24.67;;;16.47;;
9322;SDS011;4700;48.822;9.270;2023-06-14T16:01:07;14.43;;;12.57;;
9322;SDS011;4700;48.822;9.270;2023-06-14T16:03:53;10.33;;;9.33;;
9322;SDS011;4700;48.822;9.270;2023-06-14T16:06:40;38.40;;;22.17;;
9322;SDS011;4700;48.822;9.270;2023-06-14T16:09:27;22.80;;;15.50;;
9322;SDS011;4700;48.822;9.270;2023-06-14T16:12:12;18.33;;;13.50;;
9322;SDS011;4700;48.822;9.270;2023-06-14T16:15:00;17.13;;;14.10;;
9322;SDS011;4700;48.822;9.270;2023-06-14T16:17:48;16.83;;;11.80;;
9322;SDS011;4700;48.822;9.270;2023-06-14T16:20:34;19.73;;;15.30;;
9322;SDS011;4700;48.822;9.270;2023-06-14T16:23:20;25.40;;;15.07;;
9322;SDS011;4700;48.822;9.270;2023-06-14T16:26:09;16.70;;;11.93;;
9322;SDS011;4700;48.822;9.270;2023-06-14T16:28:56;33.23;;;17.43;;
9322;SDS011;4700;48.822;9.270;2023-06-14T16:31:43;30.80;;;15.20;;
9322;SDS011;4700;48.822;9.270;2023-06-14T16:34:29;22.93;;;13.60;;
9322;SDS011;4700;48.822;9.270;2023-06-14T16:37:16;15.43;;;11.53;;
9322;SDS011;4700;48.822;9.270;2023-06-14T16:40:05;10.00;;;8.80;;
9322;SDS011;4700;48.822;9.270;2023-06-14T16:42:52;9.40;;;8.30;;
9322;SDS011;4700;48.822;9.270;2023-06-14T16:45:37;8.50;;;7.63;;